Time;durP1;ratioP1;P1;durP2;ratioP2;P2;SDS_P1;SDS_P2;PMS_P1;PMS_P2;Temp;Humidity;BMP_temperature;BMP_pressure;BME280_temperature;BME280_humidity;BME280_pressure;Samples;Min_cycle;Max_cycle;Signal;HPM_P1;HPM_P2
2022/01/30 00:00:53;;;;;;;30.33;6.25;;;;;;;7.41;65.83;102485.03;7388591;19;20015;-66
2022/01/30 00:03:22;;;;;;;31.80;6.32;;;;;;;7.40;66.02;102492.84;7387776;19;20014;-66
2022/01/30 00:05:51;;;;;;;28.83;5.63;;;;;;;7.45;65.89;102483.28;7387438;19;20110;-66
2022/01/30 00:08:20;;;;;;;27.27;5.97;;;;;;;7.47;65.79;102462.41;7389083;19;20014;-68
2022/01/30 00:10:55;;;;;;;28.30;5.97;;;;;;;7.44;65.58;102473.72;7387310;19;20011;-66
2022/01/30 00:13:27;;;;;;;29.23;5.70;;;;;;;7.49;66.70;102476.28;7389564;19;20049;-65
2022/01/30 00:15:57;;;;;;;24.70;5.30;;;;;;;7.51;66.73;102471.91;7389464;19;20479;-68
2022/01/30 00:21:15;;;;;;;37.90;6.15;;;;;;;7.47;65.86;102478.06;7391984;19;20094;-68
2022/01/30 00:23:48;;;;;;;27.05;5.50;;;;;;;7.40;66.33;102478.06;7396820;19;20689;-68
2022/01/30 00:26:19;;;;;;;32.13;6.03;;;;;;;7.37;65.83;102466.78;7396712;19;20024;-68
2022/01/30 00:28:50;;;;;;;32.75;6.40;;;;;;;7.33;65.94;102476.34;7397041;19;20014;-67
2022/01/30 00:31:21;;;;;;;33.20;5.97;;;;;;;7.27;66.36;102486.81;7394202;19;20020;-68
2022/01/30 00:33:50;;;;;;;33.33;5.88;;;;;;;7.33;65.48;102485.94;7396415;19;20018;-66
2022/01/30 00:36:19;;;;;;;29.52;6.63;;;;;;;7.31;65.79;102485.03;7396253;19;20014;-67
2022/01/30 00:38:48;;;;;;;32.85;5.88;;;;;;;7.26;65.98;102501.59;7395695;19;20013;-67
2022/01/30 00:41:17;;;;;;;32.60;6.65;;;;;;;7.23;65.48;102488.56;7394085;19;20021;-67
2022/01/30 00:43:46;;;;;;;22.52;5.45;;;;;;;7.26;66.72;102509.44;7396686;19;20033;-67
2022/01/30 00:46:17;;;;;;;29.85;5.78;;;;;;;7.25;65.84;102507.69;7395768;19;20010;-66
2022/01/30 00:48:46;;;;;;;34.95;6.85;;;;;;;7.23;66.16;102508.56;7396175;19;20018;-67
2022/01/30 00:51:17;;;;;;;29.00;5.57;;;;;;;7.22;66.01;102510.31;7393246;19;20025;-67
2022/01/30 00:53:46;;;;;;;29.15;5.82;;;;;;;7.17;66.37;102524.22;7396094;19;20011;-66
2022/01/30 00:56:15;;;;;;;34.08;6.60;;;;;;;7.17;66.25;102505.97;7392710;19;20015;-67
2022/01/30 00:58:44;;;;;;;29.45;5.55;;;;;;;7.17;66.55;102519.88;7392755;19;20024;-67
2022/01/30 01:01:13;;;;;;;29.42;5.63;;;;;;;7.18;66.19;102520.72;7393224;19;20722;-66
2022/01/30 01:03:44;;;;;;;32.58;6.40;;;;;;;7.19;66.40;102506.81;7393556;19;20019;-67
2022/01/30 01:06:13;;;;;;;26.75;5.30;;;;;;;7.15;65.86;102507.69;7395882;19;20418;-67
2022/01/30 01:08:51;;;;;;;28.35;5.75;;;;;;;7.12;65.50;102498.16;7395060;19;20022;-67
2022/01/30 01:11:53;;;;;;;31.70;5.95;;;;;;;7.12;66.30;102511.22;7392868;19;20018;-66
2022/01/30 01:25:08;;;;;;;32.30;5.70;;;;;;;7.12;66.67;102515.53;7395614;19;20014;-65
2022/01/30 01:27:37;;;;;;;25.15;4.88;;;;;;;7.12;65.80;102512.94;7394607;19;20010;-67
2022/01/30 01:30:07;;;;;;;24.02;4.72;;;;;;;7.07;64.79;102518.16;7393210;19;20022;-67
2022/01/30 01:32:36;;;;;;;20.67;4.22;;;;;;;7.05;64.88;102527.69;7391653;19;20375;-66
2022/01/30 01:35:08;;;;;;;19.90;4.38;;;;;;;7.03;64.79;102524.25;7394542;19;20451;-67
2022/01/30 01:37:37;;;;;;;15.00;3.65;;;;;;;7.04;64.71;102533.81;7394682;19;20014;-66
2022/01/30 01:40:07;;;;;;;18.83;3.50;;;;;;;7.00;64.42;102519.91;7393125;19;20024;-66
2022/01/30 01:42:36;;;;;;;14.57;3.70;;;;;;;7.02;65.38;102518.19;7393595;19;20028;-66
2022/01/30 01:45:07;;;;;;;19.15;4.35;;;;;;;7.07;65.25;102512.94;7394312;19;20472;-66
2022/01/30 01:47:36;;;;;;;16.85;2.92;;;;;;;7.05;65.57;102502.53;7394479;19;20062;-66
2022/01/30 01:50:16;;;;;;;24.33;4.22;;;;;;;7.00;65.77;102513.81;7392392;19;20018;-66
2022/01/30 01:52:45;;;;;;;18.17;3.65;;;;;;;6.93;66.56;102515.56;7391630;19;20018;-66
2022/01/30 01:55:14;;;;;;;20.50;4.32;;;;;;;6.87;66.77;102511.22;7391595;19;20021;-66
2022/01/30 01:57:43;;;;;;;22.40;4.55;;;;;;;6.88;67.57;102517.34;7394213;19;20014;-66
2022/01/30 02:00:13;;;;;;;26.27;4.32;;;;;;;6.88;67.43;102519.94;7392579;19;20590;-66
2022/01/30 02:02:42;;;;;;;22.00;4.65;;;;;;;6.91;67.81;102517.31;7393309;19;20029;-67
2022/01/30 02:05:13;;;;;;;21.38;4.07;;;;;;;6.97;68.13;102529.47;7392689;19;20087;-65
2022/01/30 02:10:34;;;;;;;19.23;3.92;;;;;;;6.95;67.77;102526.88;7390808;19;20015;-66
2022/01/30 02:13:16;;;;;;;19.25;3.85;;;;;;;6.93;68.52;102520.78;7391604;19;20015;-66
2022/01/30 02:23:56;;;;;;;19.95;4.00;;;;;;;6.97;68.31;102530.34;7392436;19;20023;-66
2022/01/30 02:24:16;;;;;;;25.83;4.57;;;;;;;6.91;68.94;102531.22;7387567;19;20348;-65
2022/01/30 02:26:47;;;;;;;21.42;4.30;;;;;;;6.79;69.01;102540.78;7392576;19;20114;-66
2022/01/30 02:29:18;;;;;;;19.75;4.22;;;;;;;6.67;68.98;102539.91;7391205;19;20041;-66
2022/01/30 02:31:47;;;;;;;17.38;3.28;;;;;;;6.62;70.01;102543.38;7390489;19;20014;-66
2022/01/30 02:34:16;;;;;;;22.83;3.83;;;;;;;6.64;70.74;102549.47;7392533;19;20086;-64
2022/01/30 02:36:48;;;;;;;19.85;3.92;;;;;;;6.59;69.81;102523.44;7392056;19;20025;-66
2022/01/30 02:39:21;;;;;;;13.52;3.25;;;;;;;6.57;70.19;102532.97;7392079;19;20018;-66
2022/01/30 02:41:50;;;;;;;18.45;3.45;;;;;;;6.57;70.33;102539.03;7389804;19;20487;-66
2022/01/30 02:44:23;;;;;;;17.42;3.22;;;;;;;6.65;70.97;102546.88;7389526;19;20021;-66
2022/01/30 02:46:54;;;;;;;;;;;;;;;6.69;69.47;102550.31;7392915;19;20018;-65
2022/01/30 02:49:43;;;;;;;12.93;3.38;;;;;;;6.68;68.49;102543.41;7391265;19;19934;-67
2022/01/30 02:52:12;;;;;;;13.98;3.00;;;;;;;6.73;68.83;102544.25;7390790;19;20331;-66
2022/01/30 02:54:44;;;;;;;18.90;3.22;;;;;;;6.75;67.82;102542.53;7391778;19;20010;-66
2022/01/30 02:57:13;;;;;;;17.98;3.75;;;;;;;6.78;67.70;102557.25;7392149;19;20007;-66
2022/01/30 02:59:42;;;;;;;10.80;2.53;;;;;;;6.77;67.43;102558.16;7388770;19;20467;-66
2022/01/30 03:02:10;;;;;;;16.85;2.83;;;;;;;6.79;68.14;102566.81;7389948;19;20117;-65
2022/01/30 03:04:40;;;;;;;16.77;3.10;;;;;;;6.77;67.76;102581.59;7389243;19;20222;-65
2022/01/30 03:07:09;;;;;;;15.65;3.22;;;;;;;6.76;67.86;102598.94;7391283;19;20025;-66
2022/01/30 03:09:38;;;;;;;18.10;3.45;;;;;;;6.72;67.99;102584.19;7390871;19;20351;-66
2022/01/30 03:12:11;;;;;;;19.92;4.00;;;;;;;6.73;68.06;102598.97;7389255;19;20486;-66
2022/01/30 03:14:42;;;;;;;20.48;4.13;;;;;;;6.75;68.40;102599.84;7391095;19;20115;-64
2022/01/30 03:17:11;;;;;;;13.10;2.72;;;;;;;6.78;68.74;102604.16;7391984;19;20352;-66
2022/01/30 03:19:40;;;;;;;21.38;3.47;;;;;;;6.84;68.71;102612.00;7390771;19;20013;-66
2022/01/30 03:22:08;;;;;;;18.92;3.40;;;;;;;6.82;67.73;102608.50;7388876;19;20027;-65
2022/01/30 03:24:38;;;;;;;16.77;3.55;;;;;;;6.74;67.55;102613.72;7390808;19;20010;-66
2022/01/30 03:27:12;;;;;;;15.88;2.97;;;;;;;6.70;68.41;102617.19;7391022;19;20533;-66
2022/01/30 03:29:49;;;;;;;13.95;3.00;;;;;;;6.68;68.57;102614.59;7390553;19;20027;-65
2022/01/30 03:32:18;;;;;;;16.02;3.47;;;;;;;6.70;68.15;102610.25;7390531;19;20010;-66
2022/01/30 03:34:47;;;;;;;18.08;3.28;;;;;;;6.69;67.50;102623.25;7390482;19;20025;-66
2022/01/30 03:37:15;;;;;;;18.33;3.47;;;;;;;6.67;67.39;102623.25;7388842;19;20006;-66
2022/01/30 03:39:44;;;;;;;15.75;3.03;;;;;;;6.63;67.65;102618.91;7389628;19;20078;-66
2022/01/30 03:42:16;;;;;;;14.25;2.88;;;;;;;6.65;66.79;102626.72;7388228;19;20330;-66
2022/01/30 03:44:45;;;;;;;20.02;3.75;;;;;;;6.58;66.31;102628.47;7388963;19;20010;-66
2022/01/30 03:47:13;;;;;;;16.35;3.15;;;;;;;6.49;66.68;102625.84;7389929;19;20021;-66
2022/01/30 03:49:42;;;;;;;15.15;3.47;;;;;;;6.54;67.11;102627.59;7390100;19;20010;-66
2022/01/30 03:52:11;;;;;;;20.35;3.45;;;;;;;6.59;66.22;102630.22;7388350;19;20073;-65
2022/01/30 03:54:40;;;;;;;14.98;3.13;;;;;;;6.57;65.81;102635.41;7389407;19;20475;-66
2022/01/30 03:57:09;;;;;;;14.38;3.03;;;;;;;6.62;66.21;102643.25;7390411;19;20006;-66
2022/01/30 03:59:40;;;;;;;17.27;2.90;;;;;;;6.63;65.83;102637.16;7390776;19;20034;-66
2022/01/30 04:02:09;;;;;;;15.73;3.10;;;;;;;6.56;65.56;102641.50;7388433;19;20078;-66
2022/01/30 04:04:38;;;;;;;18.15;3.47;;;;;;;6.47;65.62;102648.41;7388526;19;20037;-65
2022/01/30 04:07:08;;;;;;;16.63;2.95;;;;;;;6.41;65.73;102651.88;7389882;19;20356;-67
2022/01/30 04:09:37;;;;;;;19.42;3.70;;;;;;;6.34;66.35;102660.53;7388476;19;20017;-66
2022/01/30 04:12:07;;;;;;;16.38;3.05;;;;;;;6.30;66.51;102662.25;7386586;19;20348;-65
2022/01/30 04:14:36;;;;;;;19.00;3.05;;;;;;;6.33;66.80;102664.00;7386714;19;20487;-66
2022/01/30 04:17:09;;;;;;;13.82;2.45;;;;;;;6.35;66.85;102665.75;7386532;19;20049;-66
2022/01/30 04:19:39;;;;;;;14.07;2.65;;;;;;;6.40;66.94;102665.75;7388446;19;20026;-66
2022/01/30 04:22:08;;;;;;;15.52;2.97;;;;;;;6.42;67.02;102671.84;7387455;19;20053;-65
2022/01/30 04:24:37;;;;;;;20.13;3.42;;;;;;;6.43;67.11;102664.91;7389253;19;20011;-66
2022/01/30 04:27:07;;;;;;;17.15;3.63;;;;;;;6.42;66.97;102677.06;7389221;19;20025;-65
2022/01/30 04:29:36;;;;;;;23.40;3.55;;;;;;;6.43;66.82;102668.34;7388548;19;20018;-66
2022/01/30 04:32:12;;;;;;;14.25;3.35;;;;;;;6.46;67.01;102676.22;7387039;19;20029;-66
2022/01/30 04:34:43;;;;;;;15.40;3.72;;;;;;;6.44;67.09;102670.09;7386943;19;20015;-65
2022/01/30 04:37:20;;;;;;;15.75;3.00;;;;;;;6.45;67.42;102666.66;7388072;19;20074;-66
2022/01/30 04:40:18;;;;;;;21.27;3.22;;;;;;;6.45;67.23;102669.25;7388134;19;20011;-66
2022/01/30 04:54:04;;;;;;;16.52;3.53;;;;;;;6.27;67.40;102674.41;7390401;19;20019;-66
2022/01/30 04:59:18;;;;;;;19.17;3.55;;;;;;;6.35;67.21;102678.75;7388363;19;20054;-65
2022/01/30 05:02:00;;;;;;;16.83;3.20;;;;;;;6.30;67.18;102672.66;7387251;19;20015;-66
2022/01/30 05:04:45;;;;;;;14.98;3.15;;;;;;;6.26;67.29;102673.53;7386807;19;20021;-66
2022/01/30 05:07:32;;;;;;;23.75;3.90;;;;;;;6.16;67.09;102672.63;7392873;19;20022;-67
2022/01/30 05:10:01;;;;;;;19.10;3.75;;;;;;;6.11;67.89;102678.69;7395488;19;20030;-65
2022/01/30 05:12:38;;;;;;;20.77;3.88;;;;;;;6.10;67.62;102662.16;7395685;19;20018;-66
2022/01/30 05:15:09;;;;;;;21.15;3.85;;;;;;;6.09;67.71;102662.16;7396193;19;20174;-66
2022/01/30 05:17:38;;;;;;;22.60;3.67;;;;;;;6.08;67.58;102666.50;7396344;19;20023;-66
2022/01/30 05:20:12;;;;;;;19.67;3.83;;;;;;;6.05;67.67;102672.56;7395085;19;20022;-66
2022/01/30 05:22:41;;;;;;;19.80;3.60;;;;;;;6.10;67.39;102669.13;7396018;19;20018;-66
2022/01/30 05:25:11;;;;;;;23.83;3.47;;;;;;;6.13;66.90;102657.00;7395706;19;20022;-66
2022/01/30 05:27:41;;;;;;;21.25;3.85;;;;;;;6.11;67.23;102660.47;7395383;19;20018;-65
2022/01/30 05:30:10;;;;;;;18.80;3.50;;;;;;;6.10;67.77;102663.91;7394286;19;20010;-65
2022/01/30 05:32:40;;;;;;;20.90;3.45;;;;;;;6.14;67.50;102666.53;7395355;19;20011;-66
2022/01/30 05:35:13;;;;;;;20.15;3.80;;;;;;;6.16;67.14;102671.75;7395051;19;20011;-65
2022/01/30 05:37:42;;;;;;;;;;;;;;;6.13;67.04;102682.13;7396262;19;20498;-65
2022/01/30 05:40:12;;;;;;;17.75;2.83;;;;;;;6.14;67.70;102683.88;7394107;19;19915;-66
2022/01/30 05:42:41;;;;;;;14.15;3.28;;;;;;;6.19;67.59;102675.25;7394828;19;20015;-67
2022/01/30 05:45:18;;;;;;;22.23;3.42;;;;;;;6.23;67.24;102686.50;7395982;19;20026;-64
2022/01/30 05:47:54;;;;;;;23.48;3.53;;;;;;;6.22;66.77;102682.19;7393837;19;20320;-64
2022/01/30 05:50:26;;;;;;;18.98;3.17;;;;;;;6.20;67.45;102674.38;7392157;19;20470;-63
2022/01/30 05:52:55;;;;;;;15.25;3.50;;;;;;;6.23;67.40;102684.81;7391169;19;20018;-64
2022/01/30 05:55:24;;;;;;;23.10;3.92;;;;;;;6.28;67.66;102683.94;7392727;19;20021;-64
2022/01/30 05:57:53;;;;;;;20.02;4.00;;;;;;;6.26;67.60;102683.06;7392671;19;20021;-64
2022/01/30 06:00:22;;;;;;;17.52;3.28;;;;;;;6.24;67.59;102683.91;7391653;19;20006;-67
2022/01/30 06:02:50;;;;;;;19.48;3.88;;;;;;;6.22;67.59;102680.44;7390322;19;20042;-63
2022/01/30 06:05:22;;;;;;;17.10;3.47;;;;;;;6.24;68.18;102694.31;7391979;19;20027;-64
2022/01/30 06:07:55;;;;;;;18.13;4.03;;;;;;;6.21;68.06;102689.13;7392815;19;20024;-67
2022/01/30 06:10:25;;;;;;;21.40;3.10;;;;;;;6.25;68.30;102690.00;7392239;19;20074;-65
2022/01/30 06:12:54;;;;;;;15.75;3.83;;;;;;;6.29;68.43;102701.28;7390102;19;20060;-65
2022/01/30 06:15:24;;;;;;;21.58;4.57;;;;;;;6.26;68.55;102696.97;7391783;19;20079;-64
2022/01/30 06:17:52;;;;;;;23.42;3.95;;;;;;;6.27;69.09;102708.25;7392331;19;20670;-65
2022/01/30 06:20:21;;;;;;;19.92;3.60;;;;;;;6.22;69.45;102711.69;7391784;19;20029;-65
2022/01/30 06:22:50;;;;;;;21.30;3.75;;;;;;;6.19;69.89;102710.78;7390036;19;20021;-66
2022/01/30 06:25:21;;;;;;;21.30;4.05;;;;;;;6.21;70.02;102712.53;7392264;19;20115;-64
2022/01/30 06:27:50;;;;;;;23.27;4.20;;;;;;;6.21;69.86;102716.88;7391590;19;20107;-66
2022/01/30 06:30:21;;;;;;;27.30;4.65;;;;;;;6.22;69.71;102727.31;7391067;19;20018;-65
2022/01/30 06:32:51;;;;;;;27.65;5.07;;;;;;;6.17;70.02;102731.59;7392630;19;20029;-66
2022/01/30 06:35:20;;;;;;;20.98;3.97;;;;;;;6.10;70.07;102734.19;7395520;19;20018;-65
2022/01/30 06:37:49;;;;;;;25.30;4.05;;;;;;;6.03;70.71;102736.75;7389990;19;20493;-67
2022/01/30 06:40:17;;;;;;;20.80;4.35;;;;;;;6.00;70.85;102730.66;7390484;19;20015;-67
2022/01/30 06:42:49;;;;;;;23.92;4.63;;;;;;;5.96;70.97;102731.47;7389089;19;20002;-64
2022/01/30 06:45:19;;;;;;;22.00;4.32;;;;;;;5.95;71.13;102740.16;7391020;19;20018;-65
2022/01/30 06:47:48;;;;;;;24.40;5.07;;;;;;;5.99;71.19;102731.50;7391012;19;20026;-65
2022/01/30 06:50:17;;;;;;;30.38;5.82;;;;;;;5.96;70.90;102734.06;7390111;19;20015;-67
2022/01/30 06:52:46;;;;;;;22.38;4.60;;;;;;;6.02;71.43;102731.56;7388565;19;20015;-66
2022/01/30 06:55:15;;;;;;;27.73;5.32;;;;;;;6.02;70.93;102747.16;7389961;19;20023;-66
2022/01/30 06:57:45;;;;;;;21.55;4.53;;;;;;;6.02;71.30;102740.22;7390048;19;20033;-66
2022/01/30 07:00:17;;;;;;;23.23;4.15;;;;;;;6.08;71.11;102748.94;7389648;19;20033;-66
2022/01/30 07:02:46;;;;;;;30.27;5.75;;;;;;;6.07;71.09;102745.44;7389160;19;20011;-64
2022/01/30 07:05:15;;;;;;;24.73;4.93;;;;;;;6.00;71.28;102748.88;7389844;19;20015;-66
2022/01/30 07:07:44;;;;;;;27.77;4.93;;;;;;;5.93;70.95;102749.66;7389232;19;20010;-66
2022/01/30 07:10:13;;;;;;;27.65;5.78;;;;;;;5.92;71.39;102755.72;7388947;19;20016;-67
2022/01/30 07:12:42;;;;;;;23.98;4.97;;;;;;;5.95;71.66;102761.81;7388017;19;20019;-66
2022/01/30 07:15:12;;;;;;;27.85;5.55;;;;;;;5.99;71.49;102767.94;7389223;19;20319;-66
2022/01/30 07:17:43;;;;;;;29.67;5.32;;;;;;;6.00;71.26;102761.88;7389736;19;20018;-65
2022/01/30 07:20:13;;;;;;;30.02;5.28;;;;;;;5.96;70.79;102770.50;7390012;19;20034;-64
2022/01/30 07:22:42;;;;;;;25.88;4.97;;;;;;;5.95;71.04;102780.03;7389595;19;20103;-64
2022/01/30 07:25:11;;;;;;;23.02;4.82;;;;;;;6.04;70.99;102776.66;7390368;19;20027;-68
2022/01/30 07:27:42;;;;;;;24.65;5.25;;;;;;;6.07;70.74;102787.09;7389760;19;20018;-68
2022/01/30 07:30:12;;;;;;;27.13;5.10;;;;;;;6.03;70.23;102786.22;7387268;19;20026;-64
2022/01/30 07:32:44;;;;;;;29.13;5.57;;;;;;;5.98;70.48;102787.03;7388222;19;20030;-65
2022/01/30 07:35:13;;;;;;;21.67;4.43;;;;;;;5.98;71.08;102785.28;7387943;19;20011;-66
2022/01/30 07:37:42;;;;;;;26.92;4.45;;;;;;;6.03;70.96;102794.00;7389111;19;20133;-64
2022/01/30 07:40:12;;;;;;;25.45;4.85;;;;;;;6.03;70.70;102804.44;7386346;19;20015;-64
2022/01/30 07:42:41;;;;;;;22.75;4.53;;;;;;;6.00;70.54;102806.13;7387376;19;20442;-65
2022/01/30 07:45:12;;;;;;;26.88;5.07;;;;;;;5.96;70.74;102801.72;7390140;19;20028;-66
2022/01/30 07:47:43;;;;;;;22.05;5.15;;;;;;;5.95;70.48;102807.81;7387514;19;20119;-66
2022/01/30 07:50:12;;;;;;;20.77;4.03;;;;;;;5.97;71.06;102811.28;7388731;19;20470;-66
2022/01/30 07:52:41;;;;;;;29.08;5.47;;;;;;;6.02;70.22;102818.28;7387509;19;20015;-66
2022/01/30 07:55:11;;;;;;;29.55;5.35;;;;;;;6.02;69.76;102820.88;7386686;19;20024;-67
2022/01/30 07:57:42;;;;;;;25.17;5.18;;;;;;;6.04;69.70;102819.16;7389295;19;20023;-67
2022/01/30 08:00:11;;;;;;;27.10;5.57;;;;;;;6.12;70.15;102818.34;7388576;19;20342;-66
2022/01/30 08:02:41;;;;;;;29.05;5.30;;;;;;;6.15;69.57;102831.41;7387536;19;20514;-66
2022/01/30 08:05:12;;;;;;;24.73;4.75;;;;;;;6.20;68.91;102829.69;7390006;19;20351;-65
2022/01/30 08:07:41;;;;;;;25.38;5.45;;;;;;;6.20;68.82;102832.28;7388684;19;20486;-65
2022/01/30 08:10:10;;;;;;;22.80;5.07;;;;;;;6.17;68.47;102837.47;7388148;19;20482;-64
2022/01/30 08:12:40;;;;;;;30.33;5.38;;;;;;;6.17;68.98;102834.88;7386731;19;20824;-66
2022/01/30 08:15:11;;;;;;;25.85;4.82;;;;;;;6.20;69.32;102833.19;7388285;19;20018;-64
2022/01/30 08:17:39;;;;;;;26.55;5.38;;;;;;;6.25;68.57;102833.19;7388483;19;20666;-65
2022/01/30 08:20:12;;;;;;;24.35;5.15;;;;;;;6.28;68.56;102837.56;7388298;19;20025;-66
2022/01/30 08:22:48;;;;;;;;;;;;;;;6.19;67.89;102838.34;7387177;19;20014;-66
2022/01/30 08:25:17;;;;;;;34.00;5.93;;;;;;;6.10;67.70;102846.97;7388221;19;19929;-66
2022/01/30 08:27:47;;;;;;;28.77;5.60;;;;;;;6.10;68.27;102843.50;7388035;19;20030;-65
2022/01/30 08:30:16;;;;;;;27.48;4.72;;;;;;;6.10;68.31;102841.75;7387632;19;20011;-66
2022/01/30 08:32:46;;;;;;;24.05;5.35;;;;;;;6.13;68.29;102844.41;7387819;19;20021;-64
2022/01/30 08:35:18;;;;;;;24.80;5.93;;;;;;;6.16;68.29;102839.22;7386816;19;20044;-64
2022/01/30 08:37:48;;;;;;;30.55;5.75;;;;;;;6.23;68.30;102850.50;7387268;19;20010;-66
2022/01/30 08:40:18;;;;;;;27.77;5.38;;;;;;;6.29;68.02;102850.59;7387677;19;20023;-66
2022/01/30 08:42:49;;;;;;;26.77;5.18;;;;;;;6.27;67.28;102849.69;7394072;19;20025;-65
2022/01/30 08:45:19;;;;;;;23.80;5.20;;;;;;;6.30;67.76;102854.03;7395434;19;20032;-65
2022/01/30 08:47:50;;;;;;;23.77;5.47;;;;;;;6.33;67.65;102843.66;7395496;19;20616;-66
2022/01/30 08:50:22;;;;;;;27.05;5.30;;;;;;;6.35;67.21;102854.97;7393613;19;20014;-65
2022/01/30 08:52:51;;;;;;;;;;;;;;;6.35;67.08;102855.81;7395829;19;20100;-64
2022/01/30 08:55:21;;;;;;;27.30;5.65;;;;;;;6.38;67.66;102854.97;7392955;19;19914;-65
2022/01/30 08:57:50;;;;;;;26.23;5.72;;;;;;;6.39;66.74;102864.50;7395503;19;20358;-66
2022/01/30 09:00:19;;;;;;;22.77;4.95;;;;;;;6.38;66.82;102878.41;7394530;19;20594;-64
2022/01/30 09:02:48;;;;;;;24.50;6.22;;;;;;;6.42;67.05;102874.97;7393054;19;20407;-64
2022/01/30 09:05:17;;;;;;;29.15;5.63;;;;;;;6.45;66.91;102874.97;7391936;19;20015;-64
2022/01/30 09:07:48;;;;;;;28.98;6.80;;;;;;;6.49;66.73;102881.94;7394662;19;20017;-65
2022/01/30 09:10:17;;;;;;;23.42;5.70;;;;;;;6.46;66.30;102876.72;7393649;19;20014;-64
2022/01/30 09:12:46;;;;;;;34.05;6.75;;;;;;;6.46;66.99;102881.94;7392592;19;20014;-64
2022/01/30 09:15:15;;;;;;;31.98;5.60;;;;;;;6.50;66.35;102885.41;7393495;19;20794;-65
2022/01/30 09:17:44;;;;;;;25.48;5.88;;;;;;;6.48;66.57;102880.19;7393987;19;20006;-66
2022/01/30 09:20:14;;;;;;;30.95;5.70;;;;;;;6.52;66.26;102883.69;7393610;19;20048;-64
2022/01/30 09:22:43;;;;;;;25.50;5.07;;;;;;;6.54;66.13;102889.78;7392527;19;20022;-65
2022/01/30 09:25:15;;;;;;;25.98;5.72;;;;;;;6.58;66.70;102892.41;7395957;19;20034;-65
2022/01/30 09:27:43;;;;;;;28.05;5.63;;;;;;;6.65;66.53;102901.16;7398327;19;20411;-64
2022/01/30 09:30:14;;;;;;;24.85;4.35;;;;;;;6.68;66.44;102911.56;7398312;19;20403;-65
2022/01/30 09:32:43;;;;;;;31.50;6.00;;;;;;;6.72;66.28;102907.25;7397789;19;20079;-66
2022/01/30 09:35:12;;;;;;;28.83;5.80;;;;;;;6.77;66.37;102907.28;7396520;19;20515;-66
2022/01/30 09:37:41;;;;;;;20.35;5.43;;;;;;;6.82;66.45;102911.66;7396850;19;20021;-67
2022/01/30 09:40:13;;;;;;;27.08;5.50;;;;;;;6.93;66.91;102912.59;7395760;19;20029;-64
2022/01/30 09:42:47;;;;;;;32.25;6.35;;;;;;;7.03;65.35;102910.88;7394178;19;20011;-67
2022/01/30 09:45:20;;;;;;;27.30;5.88;;;;;;;7.11;66.16;102918.75;7398237;19;20041;-67
2022/01/30 09:47:50;;;;;;;20.83;5.38;;;;;;;7.19;65.23;102916.16;7398001;19;20018;-66
2022/01/30 09:50:19;;;;;;;30.15;6.30;;;;;;;7.27;64.88;102917.06;7399042;19;20074;-65
2022/01/30 09:52:48;;;;;;;29.38;5.20;;;;;;;7.29;63.81;102915.31;7393476;19;20010;-65
2022/01/30 09:55:17;;;;;;;32.00;5.88;;;;;;;7.30;63.51;102922.28;7395127;19;20025;-66
2022/01/30 09:57:49;;;;;;;33.05;7.22;;;;;;;7.22;62.94;102918.75;7396191;19;20090;-66
2022/01/30 10:00:19;;;;;;;29.50;5.97;;;;;;;7.17;63.12;102920.50;7393294;19;20018;-66
2022/01/30 10:02:48;;;;;;;34.25;6.50;;;;;;;7.19;63.35;102922.25;7392920;19;20031;-65
2022/01/30 10:05:18;;;;;;;24.08;5.97;;;;;;;7.30;63.26;102924.88;7395585;19;20485;-64
2022/01/30 10:07:50;;;;;;;28.20;5.10;;;;;;;7.41;63.47;102924.94;7396745;19;20038;-66
2022/01/30 10:10:23;;;;;;;24.48;6.00;;;;;;;7.61;62.85;102925.84;7394842;19;20441;-66
2022/01/30 10:13:06;;;;;;;34.47;6.85;;;;;;;7.66;61.83;102925.84;7390178;19;20022;-66
2022/01/30 10:15:52;;;;;;;21.98;4.97;;;;;;;7.71;62.83;102928.47;7392194;19;20014;-66
2022/01/30 10:18:21;;;;;;;39.03;6.35;;;;;;;7.69;61.35;102923.25;7392904;19;20542;-65
2022/01/30 10:20:51;;;;;;;30.05;5.55;;;;;;;7.67;61.25;102934.56;7391317;19;20014;-66
2022/01/30 10:23:20;;;;;;;40.53;6.18;;;;;;;7.62;60.32;102926.69;7392134;19;20017;-66
2022/01/30 10:25:54;;;;;;;25.23;5.65;;;;;;;7.59;61.43;102937.13;7393402;19;20033;-65
2022/01/30 10:28:32;;;;;;;33.45;6.97;;;;;;;7.58;61.09;102930.19;7394684;19;20022;-65
2022/01/30 10:31:04;;;;;;;24.45;5.72;;;;;;;7.57;61.78;102934.53;7392602;19;20013;-66
2022/01/30 10:33:52;;;;;;;28.77;5.53;;;;;;;7.60;60.61;102933.69;7393058;19;20021;-66
2022/01/30 10:36:23;;;;;;;25.88;5.82;;;;;;;7.49;60.84;102932.78;7389583;19;20017;-65
2022/01/30 10:39:02;;;;;;;26.80;6.18;;;;;;;7.45;61.94;102937.97;7392301;19;20367;-65
2022/01/30 10:41:38;;;;;;;32.40;6.53;;;;;;;7.46;61.12;102944.06;7391158;19;20014;-66
2022/01/30 10:44:11;;;;;;;32.33;6.55;;;;;;;7.48;61.26;102936.25;7391054;19;20011;-65
2022/01/30 10:46:43;;;;;;;29.90;6.22;;;;;;;7.51;61.37;102938.84;7392112;19;20086;-65
2022/01/30 10:49:13;;;;;;;37.55;6.90;;;;;;;7.55;60.30;102941.50;7391209;19;20078;-65
2022/01/30 10:51:54;;;;;;;30.23;5.93;;;;;;;7.55;59.93;102938.88;7392210;19;20007;-66
2022/01/30 10:54:25;;;;;;;26.05;6.07;;;;;;;7.61;61.15;102938.03;7391904;19;20014;-65
2022/01/30 10:57:04;;;;;;;26.40;5.78;;;;;;;7.72;60.16;102932.81;7391113;19;20014;-65
2022/01/30 10:59:42;;;;;;;29.05;6.13;;;;;;;7.78;60.32;102931.09;7390288;19;20478;-66
2022/01/30 11:02:15;;;;;;;31.90;6.32;;;;;;;7.75;59.40;102933.72;7389752;19;20014;-66
2022/01/30 11:04:47;;;;;;;35.85;6.65;;;;;;;7.67;59.60;102943.25;7388793;19;20018;-65
2022/01/30 11:07:20;;;;;;;29.67;6.35;;;;;;;7.59;60.20;102935.41;7391307;19;20033;-65
2022/01/30 11:10:00;;;;;;;27.88;6.30;;;;;;;7.69;59.54;102940.66;7390464;19;20010;-66
2022/01/30 11:12:38;;;;;;;25.23;5.45;;;;;;;7.74;59.86;102937.19;7389886;19;20010;-66
2022/01/30 11:15:21;;;;;;;31.67;5.68;;;;;;;7.87;59.21;102939.81;7390648;19;20010;-66
2022/01/30 11:17:51;;;;;;;29.73;6.07;;;;;;;7.93;59.43;102931.97;7390768;19;20014;-66
2022/01/30 11:20:21;;;;;;;34.10;7.18;;;;;;;7.95;58.91;102930.22;7391884;19;20021;-65
2022/01/30 11:22:51;;;;;;;27.77;6.55;;;;;;;7.93;58.37;102937.22;7390301;19;20790;-65
2022/01/30 11:25:22;;;;;;;34.10;6.80;;;;;;;7.85;57.40;102923.28;7392167;19;20485;-67
2022/01/30 11:27:51;;;;;;;33.08;6.88;;;;;;;7.73;58.19;102927.59;7392199;19;20040;-65
2022/01/30 11:30:22;;;;;;;32.10;6.28;;;;;;;7.73;59.68;102927.59;7394080;19;20014;-66
2022/01/30 11:32:53;;;;;;;26.67;6.22;;;;;;;7.74;57.68;102911.09;7391515;19;20374;-66
2022/01/30 11:35:22;;;;;;;31.75;6.97;;;;;;;7.75;58.06;102914.56;7396643;19;20034;-67
2022/01/30 11:37:52;;;;;;;37.60;6.88;;;;;;;7.79;56.77;102909.34;7395535;19;20326;-65
2022/01/30 11:40:22;;;;;;;21.50;5.57;;;;;;;7.86;58.36;102915.44;7392495;19;20022;-66
2022/01/30 11:42:53;;;;;;;28.55;6.03;;;;;;;8.03;57.57;102906.75;7391042;19;20021;-65
2022/01/30 11:45:27;;;;;;;38.63;6.65;;;;;;;8.02;54.76;102905.00;7394979;19;20044;-67
2022/01/30 11:48:00;;;;;;;33.00;6.43;;;;;;;7.84;55.94;102913.69;7391117;19;20010;-67
2022/01/30 11:50:31;;;;;;;24.17;5.68;;;;;;;7.85;57.51;102911.09;7389992;19;20035;-66
2022/01/30 11:53:02;;;;;;;36.10;7.30;;;;;;;7.84;56.43;102925.03;7388631;19;20037;-66
2022/01/30 11:55:56;;;;;;;33.95;6.78;;;;;;;7.88;56.20;102915.44;7390490;19;20359;-65
2022/01/30 11:58:55;;;;;;;30.15;6.10;;;;;;;7.87;56.34;102909.34;7390937;19;20015;-65
2022/01/30 12:01:37;;;;;;;29.05;5.88;;;;;;;7.98;57.19;102909.38;7387785;19;20024;-65
2022/01/30 12:04:13;;;;;;;;;;;;;;;8.06;56.47;102911.97;7391977;19;20335;-65
2022/01/30 12:06:47;;;;;;;27.75;6.40;;;;;;;8.16;55.48;102908.47;7391449;19;19974;-65
2022/01/30 12:09:32;;;;;;;34.05;7.05;;;;;;;8.09;55.33;102915.44;7392558;19;20025;-65
2022/01/30 12:12:08;;;;;;;37.42;6.45;;;;;;;7.97;54.65;102918.94;7389952;19;20019;-65
2022/01/30 12:14:58;;;;;;;31.63;6.35;;;;;;;7.90;54.86;102916.31;7391298;19;20074;-65
2022/01/30 12:17:54;;;;;;;30.02;5.90;;;;;;;7.90;55.80;102908.50;7397743;19;20045;-64
2022/01/30 12:20:23;;;;;;;33.53;6.75;;;;;;;7.97;55.20;102911.09;7397984;19;20033;-65
2022/01/30 12:22:53;;;;;;;27.45;6.40;;;;;;;8.05;55.00;102912.84;7395484;19;20041;-63